Aviation Digital Data Service (ADDS)

Output produced by METARs form (0403 UTC 19 July 2018)
found at http://www.aviationweather.gov/adds/metars/
 
KBFD 190353Z AUTO 00000KT 10SM CLR 11/11 A3011 RMK AO2 SLP188 T01110106
KBFD 190253Z AUTO 00000KT 10SM CLR 14/11 A3010 RMK AO2 SLP185 T01390111 53010
KBFD 190153Z AUTO 00000KT 10SM CLR 15/12 A3009 RMK AO2 SLP181 T01500122
KBFD 190053Z AUTO 33004KT 10SM CLR 17/11 A3008 RMK AO2 SLP177 T01670111
KBFD 182353Z AUTO 33006KT 10SM CLR 21/11 A3007 RMK AO2 SLP172 T02110111 10244 20211 53002
KBFD 182253Z AUTO 36006KT 10SM CLR 23/11 A3006 RMK AO2 SLP172 T02280111
KBFD 182153Z AUTO 36008KT 10SM BKN050 24/11 A3006 RMK AO2 SLP171 T02390106
KBFD 182134Z AUTO 35006KT 10SM FEW002 SCT050 23/10 A3006 RMK AO2 T02280100
KBFD 182053Z AUTO 36006KT 10SM BKN055 24/11 A3006 RMK AO2 SLP170 T02390106 58004
KBFD 181953Z AUTO VRB04KT 10SM CLR 23/09 A3007 RMK AO2 SLP174 T02330094
KBFD 181853Z AUTO VRB06KT 10SM CLR 22/09 A3008 RMK AO2 SLP177 T02220094
KBFD 181753Z AUTO 03007G15KT 10SM FEW045 24/11 A3008 RMK AO2 SLP172 T02390106 10244 20150 58007
KBFD 181653Z AUTO 36005KT 10SM FEW039 SCT050 BKN060 21/12 A3009 RMK AO2 SLP181 T02110117
KBFD 181553Z AUTO 01005KT 10SM FEW033 BKN050 21/12 A3010 RMK AO2 SLP182 T02060122
KBFD 181453Z AUTO 33004KT 10SM FEW019 BKN045 19/14 A3010 RMK AO2 SLP183 T01890139 53008
KBFD 181445Z AUTO 36004KT 10SM FEW023 BKN045 OVC050 18/13 A3010 RMK AO2 T01830133
KBFD 181353Z AUTO 36008KT 330V060 10SM BKN018 BKN025 18/14 A3009 RMK AO2 SLP178 T01830139
KBFD 181334Z AUTO 35004KT 10SM BKN015 18/13 A3009 RMK AO2 T01780133
KBFD 181253Z AUTO 02005KT 10SM CLR 17/13 A3008 RMK AO2 SLP175 T01720133
KBFD 181153Z AUTO 35005KT 10SM FEW016 15/13 A3007 RMK AO2 SLP174 T01500128 10150 20100 51014
KBFD 181053Z AUTO 00000KT 10SM CLR 11/10 A3006 RMK AO2 SLP171 T01060100
KBFD 180953Z AUTO 00000KT 10SM CLR 11/09 A3005 RMK AO2 SLP166 T01060094
KBFD 180853Z AUTO 00000KT 10SM CLR 11/10 A3003 RMK AO2 SLP157 T01110100 50005
KBFD 180753Z AUTO 00000KT 10SM CLR 11/11 A3003 RMK AO2 SLP158 T01110106
KBFD 180653Z AUTO 00000KT 10SM CLR 11/11 A3002 RMK AO2 SLP154 T01110106
KBFD 180553Z AUTO 28004KT 10SM CLR 14/12 A3001 RMK AO2 SLP148 T01440122 10206 20122 53001
KBFD 180453Z AUTO 00000KT 10SM CLR 14/12 A3001 RMK AO2 SLP148 T01440122 402720133
KBFD 180353Z AUTO 31003KT 10SM CLR 14/12 A3001 RMK AO2 SLP148 T01440117
KBFD 180253Z AUTO 00000KT 10SM CLR 15/12 A3001 RMK AO2 SLP149 T01500122 50012
KBFD 180153Z AUTO 28003KT 10SM CLR 18/12 A3001 RMK AO2 SLP148 T01780122
KBFD 180053Z AUTO 31008KT 10SM CLR 19/13 A3000 RMK AO2 SLP142 T01890128
KBFD 172353Z AUTO 30007KT 10SM CLR 21/13 A2997 RMK AO2 SLP134 T02060128 10272 20206 51014
KBFD 172253Z AUTO 32009KT 10SM CLR 21/12 A2996 RMK AO2 SLP128 T02110122
KBFD 172153Z AUTO 30012G20KT 10SM FEW047 SCT055 23/12 A2995 RMK AO2 SLP127 T02280117
KBFD 172053Z AUTO 31011KT 10SM SCT050 26/12 A2993 RMK AO2 SLP116 T02560117 51004
KBFD 171953Z AUTO 34013G21KT 10SM SCT047 26/13 A2993 RMK AO2 SLP115 T02560128
KBFD 171853Z AUTO 33014G20KT 10SM SCT044 SCT055 25/14 A2992 RMK AO2 SLP114 T02500139
KBFD 171753Z AUTO 32011G21KT 10SM FEW035 FEW050 27/16 A2992 RMK AO2 SLP112 T02670156 10272 20211 58005
KBFD 171653Z AUTO 31013KT 10SM FEW026 SCT060 27/19 A2992 RMK AO2 SLP114 T02670189